KGRR

Gerald R. Ford International Airport

Airport
ICAO code
KGRR
Summary
ICAO Region
NAM
ICAO Territory
Location

Grand Rapids, Michigan,

Elevation
794 ft
Coordinates
42° 53' 5" N , 85° 31' 46" W
KCC
Airport CFIT
Altimeter Temperature Error Correction
Airport LOS
Parallel Runway Operation
Airport WX
Cumulonimbus
Metar
Observation
KGRR 261853Z 29016G27KT 9SM -RA BKN020 BKN035 OVC050 12/09 A2976 RMK AO2 PK WND 28027/1848 SLP079 P0002 T01220094
Station
Grand Rapids, Gerald R. Ford International Airport
Date/Time
2022-09-26 18:53:00
Wind direction
290°
Wind speed
16 kts
Lowest cloud amount
broken clouds
Temperature
12.2°C
Dew point
9.4°C
Humidity
83%
Weather condition
light rain

Description

Gerald R. Ford International Airport is a commercial airport located approximately 21 km southeast of Grand Rapids, in Cascade Township, Michigan.

Climatology

Humid Continental climate (Köppen climate classification Dfb) - Variable weather patterns and a large seasonal temperature variance. Summers are often warm and humid with frequent thunderstorms and winters can be very cold with frequent snowfall and persistent snow cover. Lake effect snowfall is frequent due to the proximity of Lake Michigan.

Airport map

Aerial View

SKYbrary Partners:

Safety knowledge contributed by: